Terminal Aerodrome Forecast
Issued by NWS

Home | Current Version | Previous Version | Text Only | Print | Product List | Glossary On
Versions: 1 2 3 4 5 6 7 8 9 10 11 12 13 14 15 16 17 18 19 20 21 22 23 24 25 26 27
000
FTUS45 KFGZ 040300 AAA
TAFGCN
TAF AMD
KGCN 040344Z 0404/0424 VRB03KT 5SM BR SCT001 SCT040
      TEMPO 0404/0406 1SM -SHSN BR BKN001
     FM041900 01010KT P6SM SCT035=

USA.gov is the U.S. government's official web portal to all federal, state and local government web resources and services.